createdAt,value
2023-03-17T00:00:48.047Z,45.56
2023-03-17T00:03:27.882Z,45.89
2023-03-17T00:05:58.806Z,46.10
2023-03-17T00:08:36.677Z,46.12
2023-03-17T00:11:11.819Z,46.12
2023-03-17T00:13:42.343Z,46.38
2023-03-17T00:16:18.792Z,46.43
2023-03-17T00:18:48.764Z,46.32
2023-03-17T00:21:29.161Z,46.28
2023-03-17T00:24:00.240Z,46.63
2023-03-17T00:26:29.174Z,46.19
2023-03-17T00:28:58.227Z,46.63
2023-03-17T00:31:30.247Z,46.40
2023-03-17T00:33:59.433Z,46.55
2023-03-17T00:36:33.637Z,46.60
2023-03-17T00:41:44.993Z,46.85
2023-03-17T00:44:14.750Z,46.64
2023-03-17T00:46:43.764Z,46.73
2023-03-17T00:49:21.599Z,46.44
2023-03-17T00:51:51.355Z,46.63
2023-03-17T00:54:21.027Z,47.08
2023-03-17T00:56:52.467Z,46.85
2023-03-17T00:59:26.849Z,47.15
2023-03-17T01:01:56.835Z,47.20
2023-03-17T01:04:25.988Z,47.25
2023-03-17T01:06:54.805Z,47.13
2023-03-17T01:09:27.498Z,47.21
2023-03-17T01:11:56.573Z,47.21
2023-03-17T01:14:25.383Z,47.28
2023-03-17T01:16:55.799Z,47.38
2023-03-17T01:19:24.766Z,47.19
2023-03-17T01:21:53.641Z,47.27
2023-03-17T01:24:22.800Z,47.21
2023-03-17T01:26:52.238Z,47.34
2023-03-17T01:29:21.991Z,47.42
2023-03-17T01:31:53.849Z,47.47
2023-03-17T01:34:23.539Z,47.49
2023-03-17T01:36:52.355Z,47.47
2023-03-17T01:39:21.333Z,47.53
2023-03-17T01:41:57.319Z,47.41
2023-03-17T01:44:25.989Z,47.55
2023-03-17T01:46:55.021Z,47.54
2023-03-17T01:49:36.041Z,47.60
2023-03-17T01:52:17.476Z,47.76
2023-03-17T01:55:10.935Z,47.99
2023-03-17T01:57:45.895Z,47.97
2023-03-17T02:00:19.074Z,48.06
2023-03-17T02:02:51.704Z,48.08
2023-03-17T02:05:25.011Z,48.01
2023-03-17T02:07:56.153Z,48.06
2023-03-17T02:10:30.536Z,47.97
2023-03-17T02:13:04.257Z,47.88
2023-03-17T02:15:44.854Z,47.86
2023-03-17T02:18:14.790Z,48.13
2023-03-17T02:20:47.368Z,48.32
2023-03-17T02:23:22.653Z,48.11
2023-03-17T02:25:53.634Z,48.18
2023-03-17T02:28:30.229Z,48.23
2023-03-17T02:30:59.149Z,48.27
2023-03-17T02:33:28.405Z,48.24
2023-03-17T02:35:57.380Z,48.34
2023-03-17T02:38:26.845Z,48.35
2023-03-17T02:40:55.495Z,48.34
2023-03-17T02:43:24.247Z,48.33
2023-03-17T02:45:53.317Z,48.36
2023-03-17T02:48:23.239Z,48.27
2023-03-17T02:50:51.789Z,48.41
2023-03-17T02:53:21.275Z,48.26
2023-03-17T02:55:50.718Z,48.71
2023-03-17T02:58:19.270Z,49.11
2023-03-17T03:00:49.246Z,48.77
2023-03-17T03:03:18.177Z,49.17
2023-03-17T03:05:47.701Z,48.90
2023-03-17T03:08:17.253Z,48.98
2023-03-17T03:10:47.116Z,49.01
2023-03-17T03:13:15.591Z,48.86
2023-03-17T03:15:44.597Z,48.81
2023-03-17T03:18:13.550Z,48.88
2023-03-17T03:20:44.805Z,48.84
2023-03-17T03:23:14.647Z,49.04
2023-03-17T03:25:43.739Z,48.98
2023-03-17T03:28:12.364Z,48.96
2023-03-17T03:30:42.520Z,49.08
2023-03-17T03:33:13.679Z,49.12
2023-03-17T03:35:43.350Z,49.19
2023-03-17T03:38:12.878Z,49.10
2023-03-17T03:40:41.846Z,49.36
2023-03-17T03:43:22.353Z,49.39
2023-03-17T03:45:52.397Z,49.42
2023-03-17T03:48:22.273Z,49.32
2023-03-17T03:50:50.918Z,49.28
2023-03-17T03:53:19.917Z,49.30
2023-03-17T03:55:48.768Z,49.35
2023-03-17T03:58:17.677Z,49.32
2023-03-17T04:00:47.099Z,49.45
2023-03-17T04:03:16.485Z,49.45
2023-03-17T04:05:45.709Z,49.47
2023-03-17T04:08:14.581Z,49.41
2023-03-17T04:10:43.181Z,49.54
2023-03-17T04:13:11.984Z,49.51
2023-03-17T04:15:41.285Z,49.53
2023-03-17T04:18:10.301Z,49.50
2023-03-17T04:20:39.186Z,49.49
2023-03-17T04:23:08.521Z,49.49
2023-03-17T04:25:37.521Z,49.35
2023-03-17T04:28:06.691Z,49.61
2023-03-17T04:30:35.684Z,49.54
2023-03-17T04:33:04.431Z,49.65
2023-03-17T04:35:33.073Z,49.61
2023-03-17T04:38:02.160Z,49.55
2023-03-17T04:40:31.551Z,49.57
2023-03-17T04:43:02.435Z,49.60
2023-03-17T04:45:33.064Z,49.71
2023-03-17T04:48:01.824Z,49.47
2023-03-17T04:50:30.681Z,49.60
2023-03-17T04:52:59.960Z,49.64
2023-03-17T04:55:29.004Z,49.76
2023-03-17T04:57:57.501Z,49.71
2023-03-17T05:00:27.217Z,49.72
2023-03-17T05:02:55.926Z,49.75
2023-03-17T05:05:24.550Z,49.58
2023-03-17T05:07:53.621Z,49.73
2023-03-17T05:10:22.555Z,49.77
2023-03-17T05:12:54.211Z,49.75
2023-03-17T05:15:23.656Z,49.82
2023-03-17T05:17:52.143Z,49.78
2023-03-17T05:20:20.723Z,49.65
2023-03-17T05:22:49.634Z,49.75
2023-03-17T05:25:18.253Z,49.95
2023-03-17T05:27:46.791Z,49.91
2023-03-17T05:30:16.235Z,49.88
2023-03-17T05:32:44.823Z,49.84
2023-03-17T05:35:13.893Z,49.85
2023-03-17T05:37:42.998Z,49.95
2023-03-17T05:40:13.152Z,50.13
2023-03-17T05:42:42.959Z,50.20
2023-03-17T05:45:12.594Z,50.09
2023-03-17T05:47:41.084Z,50.30
2023-03-17T05:50:14.264Z,50.18
2023-03-17T05:52:43.615Z,50.18
2023-03-17T05:55:12.870Z,50.29
2023-03-17T05:57:41.970Z,50.10
2023-03-17T06:00:12.840Z,50.25
2023-03-17T06:02:42.300Z,50.26
2023-03-17T06:05:11.507Z,50.22
2023-03-17T06:07:53.092Z,50.25
2023-03-17T06:10:25.573Z,50.38
2023-03-17T06:12:54.241Z,50.25
2023-03-17T06:15:23.047Z,50.23
2023-03-17T06:17:52.537Z,50.15
2023-03-17T06:20:22.217Z,50.39
2023-03-17T06:23:03.485Z,50.51
2023-03-17T06:25:35.567Z,50.51
2023-03-17T06:28:05.877Z,50.60
2023-03-17T06:30:39.394Z,50.06
2023-03-17T06:33:09.377Z,49.27
2023-03-17T06:35:39.308Z,48.90
2023-03-17T06:38:07.971Z,49.53
2023-03-17T06:40:37.236Z,49.52
2023-03-17T06:43:06.097Z,49.61
2023-03-17T06:45:35.139Z,49.50
2023-03-17T06:48:03.907Z,48.92
2023-03-17T06:50:33.591Z,48.79
2023-03-17T06:53:02.491Z,48.28
2023-03-17T06:55:32.365Z,48.53
2023-03-17T06:58:03.580Z,48.84
2023-03-17T07:00:33.335Z,45.93
2023-03-17T07:03:03.369Z,45.70
2023-03-17T07:05:34.113Z,46.71
2023-03-17T07:08:02.705Z,47.22
2023-03-17T07:10:31.825Z,45.24
2023-03-17T07:13:01.234Z,44.86
2023-03-17T07:15:35.092Z,43.94
2023-03-17T07:18:05.404Z,43.97
2023-03-17T07:20:33.840Z,43.79
2023-03-17T07:23:04.049Z,43.57
2023-03-17T07:25:37.026Z,42.28
2023-03-17T07:28:06.174Z,42.10
2023-03-17T07:30:35.088Z,41.32
2023-03-17T07:33:04.596Z,41.10
2023-03-17T07:35:35.088Z,41.51
2023-03-17T07:38:04.196Z,41.56
2023-03-17T07:40:35.242Z,41.36
2023-03-17T07:43:05.249Z,41.14
2023-03-17T07:45:36.438Z,41.40
2023-03-17T07:48:06.930Z,40.27
2023-03-17T07:50:37.232Z,39.90
2023-03-17T07:53:05.912Z,40.19
2023-03-17T07:55:36.333Z,40.74
2023-03-17T07:58:06.039Z,40.34
2023-03-17T08:00:35.210Z,40.42
2023-03-17T08:03:10.354Z,39.93
2023-03-17T08:05:40.142Z,39.55
2023-03-17T08:08:09.669Z,39.16
2023-03-17T08:10:38.590Z,39.24
2023-03-17T08:13:07.969Z,38.94
2023-03-17T08:15:37.553Z,38.70
2023-03-17T08:18:06.322Z,38.73
2023-03-17T08:20:35.904Z,38.40
2023-03-17T08:23:05.417Z,37.95
2023-03-17T08:25:34.407Z,38.28
2023-03-17T08:28:04.929Z,38.14
2023-03-17T08:30:35.576Z,37.41
2023-03-17T08:33:09.325Z,37.75
2023-03-17T08:35:42.295Z,37.18
2023-03-17T08:38:11.514Z,37.24
2023-03-17T08:40:40.683Z,37.20
2023-03-17T08:43:09.349Z,37.04
2023-03-17T08:45:39.389Z,36.71
2023-03-17T08:48:08.656Z,36.38
2023-03-17T08:50:37.980Z,36.85
2023-03-17T08:53:06.743Z,36.61
2023-03-17T08:55:35.622Z,36.88
2023-03-17T08:58:05.819Z,36.68
2023-03-17T09:00:34.964Z,35.87
2023-03-17T09:03:04.173Z,35.76
2023-03-17T09:05:59.709Z,35.24
2023-03-17T09:08:45.226Z,34.97
2023-03-17T09:11:19.328Z,34.64
2023-03-17T09:13:49.086Z,34.70
2023-03-17T09:16:20.577Z,34.26
2023-03-17T09:18:50.256Z,34.63
2023-03-17T09:21:19.277Z,34.95
2023-03-17T09:23:48.568Z,34.98
2023-03-17T09:26:17.724Z,35.17
2023-03-17T09:28:46.353Z,35.05
2023-03-17T09:31:15.224Z,34.87
2023-03-17T09:33:44.239Z,34.74
2023-03-17T09:36:13.845Z,34.52
2023-03-17T09:38:42.680Z,34.20
2023-03-17T09:41:20.289Z,34.36
2023-03-17T09:43:57.956Z,33.99
2023-03-17T09:47:01.063Z,33.94
2023-03-17T09:49:47.320Z,34.09
2023-03-17T09:52:18.981Z,34.06
2023-03-17T09:55:08.875Z,33.98
2023-03-17T09:57:40.664Z,33.76
2023-03-17T10:00:27.063Z,33.94
2023-03-17T10:03:00.164Z,33.92
2023-03-17T10:05:36.088Z,33.62
2023-03-17T10:08:31.395Z,33.40
2023-03-17T10:11:11.366Z,33.42
2023-03-17T10:13:58.396Z,33.18
2023-03-17T10:16:43.442Z,33.00
2023-03-17T10:19:27.790Z,32.90
2023-03-17T10:22:04.573Z,33.15
2023-03-17T10:24:34.813Z,33.19
2023-03-17T10:27:06.663Z,33.03
2023-03-17T10:29:37.567Z,33.28
2023-03-17T10:32:12.781Z,32.95
2023-03-17T10:34:43.169Z,32.83
2023-03-17T10:37:21.690Z,32.96
2023-03-17T10:39:56.529Z,32.89
2023-03-17T10:42:32.584Z,32.83
2023-03-17T10:45:28.087Z,32.81
2023-03-17T10:47:59.200Z,32.84
2023-03-17T10:50:31.019Z,32.76
2023-03-17T10:53:11.209Z,32.61
2023-03-17T10:55:50.077Z,32.74
2023-03-17T10:58:39.588Z,32.76
2023-03-17T11:01:21.283Z,33.09
2023-03-17T11:03:50.306Z,32.93
2023-03-17T11:06:26.350Z,32.89
2023-03-17T11:08:56.220Z,32.95
2023-03-17T11:11:35.058Z,32.93
2023-03-17T11:14:14.347Z,32.96
2023-03-17T11:17:04.652Z,33.06
2023-03-17T11:19:36.686Z,33.17
2023-03-17T11:22:10.359Z,32.94
2023-03-17T11:24:51.531Z,32.86
2023-03-17T11:27:43.948Z,32.86
2023-03-17T11:30:37.437Z,32.99
2023-03-17T11:33:18.808Z,32.95
2023-03-17T11:36:06.559Z,32.73
2023-03-17T11:38:42.148Z,32.65
2023-03-17T11:41:31.924Z,32.73
2023-03-17T11:44:12.127Z,32.63
2023-03-17T11:46:47.058Z,32.76
2023-03-17T11:49:22.632Z,32.66
2023-03-17T11:52:12.920Z,33.01
2023-03-17T11:55:06.104Z,33.13
2023-03-17T11:57:40.085Z,33.02
2023-03-17T12:00:17.224Z,33.01
2023-03-17T12:02:57.029Z,32.61
2023-03-17T12:05:27.864Z,32.96
2023-03-17T12:08:02.520Z,32.97
2023-03-17T12:10:40.928Z,32.86
2023-03-17T12:13:17.039Z,33.19
2023-03-17T12:15:51.528Z,33.12
2023-03-17T12:18:36.571Z,32.95
2023-03-17T12:21:16.041Z,32.85
2023-03-17T12:23:52.701Z,32.89
2023-03-17T12:26:33.805Z,32.96
2023-03-17T12:29:26.188Z,32.90
2023-03-17T12:32:12.772Z,33.09
2023-03-17T12:35:06.382Z,32.97
2023-03-17T12:37:35.164Z,32.97
2023-03-17T12:40:10.740Z,33.14
2023-03-17T12:42:55.248Z,33.05
2023-03-17T12:45:49.081Z,32.83
2023-03-17T12:48:30.107Z,32.65
2023-03-17T12:51:20.889Z,32.55
2023-03-17T12:53:51.876Z,32.39
2023-03-17T12:56:30.249Z,32.47
2023-03-17T12:59:16.463Z,32.66
2023-03-17T13:01:53.700Z,32.78
2023-03-17T13:04:33.379Z,32.49
2023-03-17T13:07:17.575Z,32.53
2023-03-17T13:10:33.879Z,32.48
2023-03-17T13:13:36.120Z,32.68
2023-03-17T13:16:06.773Z,32.71
2023-03-17T13:18:35.385Z,32.62
2023-03-17T13:21:04.538Z,32.86
2023-03-17T13:23:35.004Z,32.73
2023-03-17T13:26:04.739Z,32.62
2023-03-17T13:28:37.358Z,32.54
2023-03-17T13:31:28.792Z,32.61
2023-03-17T13:34:15.760Z,32.66
2023-03-17T13:36:48.208Z,32.44
2023-03-17T13:39:31.491Z,32.48
2023-03-17T13:42:19.034Z,32.72
2023-03-17T13:45:17.196Z,32.81
2023-03-17T13:47:47.468Z,32.73
2023-03-17T13:50:23.961Z,32.71
2023-03-17T13:53:05.133Z,32.84
2023-03-17T13:55:36.638Z,32.66
2023-03-17T13:58:11.148Z,32.73
2023-03-17T14:00:44.321Z,32.77
2023-03-17T14:03:18.310Z,32.91
2023-03-17T14:05:49.991Z,32.86
2023-03-17T14:08:20.639Z,32.63
2023-03-17T14:11:02.583Z,32.66
2023-03-17T14:13:42.864Z,32.84
2023-03-17T14:16:27.392Z,32.88
2023-03-17T14:19:01.593Z,32.95
2023-03-17T14:21:32.630Z,32.97
2023-03-17T14:24:16.346Z,33.07
2023-03-17T14:26:45.298Z,33.10
2023-03-17T14:29:17.188Z,33.18
2023-03-17T14:31:53.262Z,33.26
2023-03-17T14:34:23.306Z,33.16
2023-03-17T14:36:52.430Z,33.23
2023-03-17T14:39:26.233Z,33.28
2023-03-17T14:42:03.299Z,33.20
2023-03-17T14:44:44.886Z,33.37
2023-03-17T14:47:24.875Z,33.37
2023-03-17T14:49:54.954Z,33.46
2023-03-17T14:52:28.970Z,33.53
2023-03-17T14:54:59.826Z,33.54
2023-03-17T14:57:33.186Z,33.59
2023-03-17T15:00:16.236Z,33.55
2023-03-17T15:02:57.949Z,33.60
2023-03-17T15:05:36.240Z,33.63
2023-03-17T15:08:42.966Z,33.75
2023-03-17T15:11:23.807Z,33.70
2023-03-17T15:14:15.297Z,33.75
2023-03-17T15:16:53.497Z,33.74
2023-03-17T15:19:30.423Z,33.85
2023-03-17T15:22:00.900Z,33.89
2023-03-17T15:24:40.449Z,33.87
2023-03-17T15:27:18.457Z,33.83
2023-03-17T15:29:48.550Z,33.89
2023-03-17T15:32:20.780Z,33.86
2023-03-17T15:34:52.255Z,33.86
2023-03-17T15:37:26.993Z,33.92
2023-03-17T15:39:56.766Z,34.05
2023-03-17T15:42:28.698Z,34.04
2023-03-17T15:45:00.326Z,34.10
2023-03-17T15:47:32.679Z,34.10
2023-03-17T15:50:22.223Z,34.12
2023-03-17T15:52:54.273Z,34.24
2023-03-17T15:55:26.114Z,34.27
2023-03-17T15:57:55.693Z,34.31
2023-03-17T16:00:26.772Z,34.35
2023-03-17T16:02:59.048Z,34.47
2023-03-17T16:05:32.103Z,34.51
2023-03-17T16:08:01.346Z,34.56
2023-03-17T16:10:32.844Z,34.65
2023-03-17T16:13:02.140Z,34.77
2023-03-17T16:15:35.446Z,34.87
2023-03-17T16:18:07.847Z,34.80
2023-03-17T16:21:04.555Z,34.72
2023-03-17T16:23:37.110Z,34.85
2023-03-17T16:26:16.523Z,34.81
2023-03-17T16:28:47.909Z,34.75
2023-03-17T16:31:25.910Z,34.84
2023-03-17T16:33:55.328Z,34.67
2023-03-17T16:36:25.196Z,34.82
2023-03-17T16:38:54.005Z,35.01
2023-03-17T16:41:27.845Z,34.99
2023-03-17T16:44:06.858Z,34.99
2023-03-17T16:46:35.841Z,34.92
2023-03-17T16:49:05.377Z,34.97
2023-03-17T16:51:34.262Z,35.10
2023-03-17T16:54:02.792Z,35.22
2023-03-17T16:56:32.038Z,35.16
2023-03-17T16:59:01.922Z,35.33
2023-03-17T17:01:30.676Z,35.54
2023-03-17T17:03:59.544Z,35.56
2023-03-17T17:06:28.364Z,35.53
2023-03-17T17:08:59.879Z,36.05
2023-03-17T17:11:28.682Z,36.09
2023-03-17T17:13:58.828Z,36.23
2023-03-17T17:16:29.551Z,36.35
2023-03-17T17:19:00.664Z,36.48
2023-03-17T17:21:29.625Z,36.61
2023-03-17T17:23:58.921Z,36.86
2023-03-17T17:26:28.280Z,36.91
2023-03-17T17:28:57.210Z,37.06
2023-03-17T17:31:25.909Z,36.85
2023-03-17T17:33:55.842Z,36.98
2023-03-17T17:36:26.545Z,37.11
2023-03-17T17:38:55.245Z,37.25
2023-03-17T17:41:24.692Z,37.35
2023-03-17T17:43:54.253Z,37.15
2023-03-17T17:46:23.597Z,37.32
2023-03-17T17:48:53.061Z,37.46
2023-03-17T17:51:21.618Z,37.39
2023-03-17T17:53:50.404Z,37.37
2023-03-17T17:56:19.441Z,37.45
2023-03-17T17:58:48.096Z,37.46
2023-03-17T18:01:20.270Z,37.42
2023-03-17T18:04:02.809Z,37.67
2023-03-17T18:06:57.288Z,37.58
2023-03-17T18:09:46.180Z,37.93
2023-03-17T18:12:38.305Z,38.01
2023-03-17T18:15:28.123Z,37.99
2023-03-17T18:18:18.786Z,38.06
2023-03-17T18:21:15.192Z,38.13
2023-03-17T18:24:01.388Z,38.17
2023-03-17T18:26:53.244Z,38.06
2023-03-17T18:29:43.258Z,38.01
2023-03-17T18:32:38.867Z,38.13
2023-03-17T18:35:30.599Z,38.15
2023-03-17T18:38:20.859Z,38.27
2023-03-17T18:41:07.005Z,38.25
2023-03-17T18:43:46.067Z,38.18
2023-03-17T18:46:16.729Z,38.21
2023-03-17T18:48:45.708Z,38.27
2023-03-17T18:51:14.856Z,38.23
2023-03-17T18:53:43.815Z,38.45
2023-03-17T18:56:12.744Z,38.43
2023-03-17T18:58:41.699Z,38.42
2023-03-17T19:01:10.587Z,38.40
2023-03-17T19:03:39.693Z,38.50
2023-03-17T19:06:14.110Z,38.54
2023-03-17T19:08:43.192Z,38.61
2023-03-17T19:11:14.190Z,38.58
2023-03-17T19:13:43.803Z,38.60
2023-03-17T19:16:13.521Z,38.78
2023-03-17T19:18:42.483Z,38.80
2023-03-17T19:21:13.816Z,38.72
2023-03-17T19:23:43.001Z,38.61
2023-03-17T19:26:11.936Z,38.67
2023-03-17T19:28:41.305Z,38.66
2023-03-17T19:31:10.316Z,38.61
2023-03-17T19:33:39.025Z,38.66
2023-03-17T19:36:12.266Z,38.60
2023-03-17T19:38:42.180Z,38.69
2023-03-17T19:41:11.042Z,38.66
2023-03-17T19:43:41.649Z,38.71
2023-03-17T19:46:12.131Z,38.66
2023-03-17T19:48:41.433Z,38.61
2023-03-17T19:51:10.045Z,38.54
2023-03-17T19:53:38.990Z,38.57
2023-03-17T19:56:08.194Z,38.55
2023-03-17T19:58:37.915Z,38.55
2023-03-17T20:01:07.974Z,38.56
2023-03-17T20:03:47.510Z,38.45
2023-03-17T20:06:17.148Z,38.55
2023-03-17T20:08:46.216Z,38.49
2023-03-17T20:11:19.613Z,38.49
2023-03-17T20:13:50.296Z,38.60
2023-03-17T20:16:20.017Z,38.52
2023-03-17T20:18:48.827Z,38.57
2023-03-17T20:21:17.665Z,38.59
2023-03-17T20:23:46.668Z,38.47
2023-03-17T20:26:15.923Z,38.51
2023-03-17T20:28:44.956Z,38.55
2023-03-17T20:31:14.044Z,38.47
2023-03-17T20:33:44.177Z,38.53
2023-03-17T20:36:14.337Z,38.55
2023-03-17T20:38:44.090Z,38.62
2023-03-17T20:41:16.517Z,38.73
2023-03-17T20:43:47.521Z,38.63
2023-03-17T20:46:19.784Z,38.59
2023-03-17T20:48:49.022Z,38.65
2023-03-17T20:51:18.917Z,38.72
2023-03-17T20:54:00.150Z,38.55
2023-03-17T20:56:30.927Z,38.74
2023-03-17T20:59:04.359Z,38.60
2023-03-17T21:01:38.959Z,38.56
2023-03-17T21:04:12.984Z,38.63
2023-03-17T21:06:43.145Z,38.77
2023-03-17T21:09:12.288Z,38.77
2023-03-17T21:11:42.062Z,38.60
2023-03-17T21:14:14.001Z,38.60
2023-03-17T21:16:43.232Z,38.67
2023-03-17T21:19:17.512Z,38.57
2023-03-17T21:21:46.080Z,38.59
2023-03-17T21:24:26.163Z,38.59
2023-03-17T21:26:55.878Z,38.67
2023-03-17T21:29:24.974Z,38.67
2023-03-17T21:31:54.498Z,38.69
2023-03-17T21:34:25.561Z,38.70
2023-03-17T21:36:54.951Z,38.56
2023-03-17T21:39:29.404Z,38.51
2023-03-17T21:42:01.218Z,38.51
2023-03-17T21:44:30.372Z,38.50
2023-03-17T21:47:03.537Z,38.26
2023-03-17T21:49:32.712Z,38.41
2023-03-17T21:52:04.851Z,38.33
2023-03-17T21:54:36.408Z,38.31
2023-03-17T21:57:05.147Z,38.37
2023-03-17T21:59:36.013Z,38.29
2023-03-17T22:02:07.000Z,38.29
2023-03-17T22:04:35.818Z,38.37
2023-03-17T22:07:04.796Z,38.20
2023-03-17T22:09:34.071Z,38.38
2023-03-17T22:12:04.614Z,38.28
2023-03-17T22:14:35.955Z,38.34
2023-03-17T22:17:05.792Z,38.11
2023-03-17T22:19:34.768Z,38.02
2023-03-17T22:22:04.202Z,38.08
2023-03-17T22:24:33.550Z,37.82
2023-03-17T22:27:02.399Z,37.83
2023-03-17T22:29:31.960Z,37.86
2023-03-17T22:32:01.693Z,37.79
2023-03-17T22:34:30.357Z,37.57
2023-03-17T22:36:59.401Z,37.49
2023-03-17T22:39:28.995Z,37.65
2023-03-17T22:41:57.494Z,37.56
2023-03-17T22:44:26.781Z,37.52
2023-03-17T22:46:56.454Z,37.69
2023-03-17T22:49:25.529Z,37.48
2023-03-17T22:51:54.291Z,37.57
2023-03-17T22:54:23.435Z,37.55
2023-03-17T22:56:52.092Z,37.60
2023-03-17T22:59:21.104Z,37.48
2023-03-17T23:01:50.262Z,37.53
2023-03-17T23:04:21.224Z,37.47
2023-03-17T23:06:50.522Z,37.53
2023-03-17T23:09:19.968Z,37.73
2023-03-17T23:11:48.476Z,37.47
2023-03-17T23:14:17.351Z,37.67
2023-03-17T23:16:47.375Z,37.81
2023-03-17T23:19:16.052Z,37.77
2023-03-17T23:21:45.045Z,37.76
2023-03-17T23:24:14.098Z,37.68
2023-03-17T23:26:42.786Z,37.71
2023-03-17T23:29:11.955Z,37.85
2023-03-17T23:31:41.344Z,37.90
2023-03-17T23:34:10.040Z,37.78
2023-03-17T23:36:40.470Z,37.76
2023-03-17T23:39:10.007Z,37.83
2023-03-17T23:41:39.248Z,37.82
2023-03-17T23:44:10.443Z,37.96
2023-03-17T23:46:39.847Z,37.95
2023-03-17T23:49:08.403Z,38.00
2023-03-17T23:51:37.139Z,37.94
2023-03-17T23:54:07.975Z,37.83
2023-03-17T23:56:36.796Z,37.89
2023-03-17T23:59:08.657Z,38.00
